Time;durP1;ratioP1;P1;durP2;ratioP2;P2;SDS_P1;SDS_P2;PMS_P1;PMS_P2;Temp;Humidity;BMP_temperature;BMP_pressure;BME280_temperature;BME280_humidity;BME280_pressure;Samples;Min_cycle;Max_cycle;Signal;HPM_P1;HPM_P2
2023/06/30 00:00:26;;;;;;;4.78;2.72;;;;;;;11.91;100.00;101368.41;5068757;28;20066;-47
2023/06/30 00:02:52;;;;;;;6.50;2.65;;;;;;;12.21;100.00;101426.38;5072165;28;20135;-47
2023/06/30 00:05:18;;;;;;;5.97;3.17;;;;;;;12.31;100.00;101443.69;5072499;28;20471;-53
2023/06/30 00:07:44;;;;;;;7.65;3.30;;;;;;;11.86;100.00;101379.06;5072905;28;20175;-52
2023/06/30 00:10:09;;;;;;;8.40;2.97;;;;;;;11.83;100.00;101377.38;5054587;28;20127;-48
2023/06/30 00:12:35;;;;;;;7.47;2.88;;;;;;;12.05;100.00;101413.69;5054461;28;20029;-47
2023/06/30 00:15:00;;;;;;;7.55;3.40;;;;;;;12.21;100.00;101451.91;5065435;28;20104;-47
2023/06/30 00:17:26;;;;;;;4.95;2.40;;;;;;;12.17;100.00;101450.28;5064278;28;20028;-49
2023/06/30 00:19:51;;;;;;;4.97;2.92;;;;;;;12.16;100.00;101453.84;5063586;28;20115;-48
2023/06/30 00:22:19;;;;;;;6.28;2.63;;;;;;;12.11;100.00;101442.56;5029147;28;20036;-47
2023/06/30 00:24:46;;;;;;;6.93;2.72;;;;;;;12.13;100.00;101443.38;5056742;28;20526;-50
2023/06/30 00:27:12;;;;;;;5.47;2.55;;;;;;;11.96;100.00;101412.19;5068300;28;20040;-47
2023/06/30 00:29:37;;;;;;;5.03;2.47;;;;;;;12.02;100.00;101414.66;5053914;28;20032;-48
2023/06/30 00:32:03;;;;;;;7.03;3.00;;;;;;;12.08;100.00;101422.41;5051834;28;20480;-48
2023/06/30 00:34:28;;;;;;;5.97;2.70;;;;;;;12.13;100.00;101432.81;5051932;28;20435;-51
2023/06/30 00:36:53;;;;;;;6.65;3.05;;;;;;;12.14;100.00;101431.91;5052343;28;20038;-50
2023/06/30 00:39:19;;;;;;;5.95;2.92;;;;;;;12.14;100.00;101439.81;5052163;28;20129;-48
2023/06/30 00:41:44;;;;;;;7.80;3.28;;;;;;;11.67;100.00;101349.72;5052073;28;20040;-48
2023/06/30 00:44:09;;;;;;;6.38;3.05;;;;;;;12.16;100.00;101420.38;5033938;28;20029;-50
2023/06/30 00:46:35;;;;;;;8.10;2.72;;;;;;;12.05;100.00;101413.69;5051560;28;20033;-48
2023/06/30 00:49:00;;;;;;;6.75;3.10;;;;;;;12.20;100.00;101426.44;5050472;28;20037;-48
2023/06/30 00:51:26;;;;;;;3.90;3.20;;;;;;;12.00;100.00;101397.13;5037611;28;20115;-50
2023/06/30 00:53:51;;;;;;;3.55;2.63;;;;;;;11.97;100.00;101386.66;5048484;28;20040;-49
2023/06/30 00:56:17;;;;;;;6.57;3.17;;;;;;;12.18;100.00;101434.41;5075591;28;20063;-48
2023/06/30 00:58:42;;;;;;;6.78;3.20;;;;;;;12.13;100.00;101422.25;5045593;28;20177;-52
2023/06/30 01:01:21;;;;;;;6.93;3.58;;;;;;;12.09;100.00;101417.97;5055401;28;20048;-48
2023/06/30 01:03:52;;;;;;;5.90;3.10;;;;;;;11.72;100.00;101353.09;5042983;28;20028;-47
2023/06/30 01:06:40;;;;;;;6.65;2.80;;;;;;;12.03;100.00;101420.78;5070265;28;20086;-48
2023/06/30 01:09:15;;;;;;;7.20;3.08;;;;;;;11.60;100.00;101350.78;5037934;28;20480;-50
2023/06/30 01:11:41;;;;;;;8.93;3.47;;;;;;;11.74;100.00;101379.41;5055639;28;20021;-47
2023/06/30 01:14:08;;;;;;;5.85;2.92;;;;;;;11.93;100.00;101424.59;5055828;28;20037;-49
2023/06/30 01:16:34;;;;;;;7.40;3.22;;;;;;;11.87;100.00;101411.59;5037830;28;20055;-48
2023/06/30 01:19:02;;;;;;;8.45;3.63;;;;;;;11.74;100.00;101396.09;5037706;28;20460;-48
2023/06/30 01:21:29;;;;;;;4.00;2.72;;;;;;;11.90;100.00;101419.41;5037485;28;20056;-52
2023/06/30 01:24:02;;;;;;;7.55;3.55;;;;;;;11.40;100.00;101337.28;5055513;28;20391;-48
2023/06/30 01:26:28;;;;;;;6.22;3.05;;;;;;;11.90;100.00;101422.94;5040114;28;20452;-50
2023/06/30 01:28:53;;;;;;;9.73;3.15;;;;;;;11.88;100.00;101418.59;5054202;28;20044;-53
2023/06/30 01:31:19;;;;;;;6.75;3.30;;;;;;;11.37;100.00;101337.38;5037632;28;20078;-50
2023/06/30 01:33:45;;;;;;;5.25;2.78;;;;;;;11.78;100.00;101403.03;5055211;28;20392;-49
2023/06/30 01:36:10;;;;;;;9.82;2.90;;;;;;;11.90;100.00;101425.56;5055503;28;20091;-50
2023/06/30 01:38:35;;;;;;;7.72;2.75;;;;;;;11.90;100.00;101414.13;5054735;28;20589;-51
2023/06/30 01:41:01;;;;;;;4.10;2.97;;;;;;;11.93;100.00;101416.69;5055270;28;20532;-51
2023/06/30 01:43:28;;;;;;;6.90;3.10;;;;;;;11.49;100.00;101342.31;5055287;28;20480;-49
2023/06/30 01:45:54;;;;;;;6.47;3.33;;;;;;;11.46;100.00;101337.13;5037392;28;20060;-54
2023/06/30 01:48:20;;;;;;;7.07;3.45;;;;;;;11.59;100.00;101363.97;5020658;28;20079;-50
2023/06/30 01:50:45;;;;;;;7.45;3.63;;;;;;;11.90;100.00;101407.09;5053809;28;20033;-48
2023/06/30 01:53:11;;;;;;;7.30;2.95;;;;;;;11.88;100.00;101403.63;5054563;28;20036;-48
2023/06/30 01:55:36;;;;;;;8.00;3.45;;;;;;;11.43;100.00;101333.69;5054609;28;20037;-50
2023/06/30 01:58:03;;;;;;;5.18;3.38;;;;;;;11.76;100.00;101407.47;5037364;28;20454;-48
2023/06/30 02:00:28;;;;;;;8.80;3.30;;;;;;;11.79;100.00;101409.19;5054651;28;20045;-47
2023/06/30 02:02:54;;;;;;;5.93;3.33;;;;;;;11.28;100.00;101324.44;5054631;28;20056;-52
2023/06/30 02:05:19;;;;;;;5.68;3.10;;;;;;;11.33;100.00;101335.72;5054509;28;20040;-50
2023/06/30 02:07:44;;;;;;;8.43;2.92;;;;;;;11.61;100.00;101385.91;5054253;28;20029;-49
2023/06/30 02:10:10;;;;;;;6.10;2.70;;;;;;;11.19;100.00;101316.78;5036641;28;20037;-49
2023/06/30 02:12:35;;;;;;;4.47;2.95;;;;;;;11.19;100.00;101330.84;5054689;28;20465;-53
2023/06/30 02:15:01;;;;;;;5.25;2.80;;;;;;;11.59;100.00;101396.50;5054520;28;20116;-52
2023/06/30 02:17:33;;;;;;;7.10;3.42;;;;;;;11.56;100.00;101393.06;5054634;28;20107;-48
2023/06/30 02:19:59;;;;;;;5.18;3.00;;;;;;;11.55;100.00;101408.06;5054376;28;20033;-50
2023/06/30 02:22:25;;;;;;;6.25;2.78;;;;;;;11.15;100.00;101326.53;5054491;28;20033;-50
2023/06/30 02:24:50;;;;;;;6.75;2.85;;;;;;;11.44;100.00;101388.16;5053974;28;20443;-52
2023/06/30 02:27:16;;;;;;;8.65;2.92;;;;;;;11.10;100.00;101332.84;5054132;28;20530;-51
2023/06/30 02:29:43;;;;;;;4.65;2.85;;;;;;;11.08;100.00;101332.03;5053040;28;20041;-49
2023/06/30 02:32:08;;;;;;;5.82;2.85;;;;;;;11.40;100.00;101400.56;5054086;28;20090;-48
2023/06/30 02:34:34;;;;;;;6.47;2.85;;;;;;;11.00;100.00;101334.88;5054035;28;20040;-50
2023/06/30 02:37:00;;;;;;;7.40;2.55;;;;;;;11.35;100.00;101401.59;5036258;28;20033;-48
2023/06/30 02:39:26;;;;;;;5.80;3.15;;;;;;;11.39;100.00;101396.19;5054400;28;20090;-48
2023/06/30 02:41:51;;;;;;;7.72;3.15;;;;;;;11.37;100.00;101389.22;5066852;28;20045;-50
2023/06/30 02:44:17;;;;;;;5.80;3.30;;;;;;;11.40;100.00;101395.28;5072961;28;20033;-50
2023/06/30 02:46:42;;;;;;;9.77;3.38;;;;;;;11.40;100.00;101397.03;5074094;28;20146;-45
2023/06/30 02:49:07;;;;;;;7.38;2.80;;;;;;;10.97;100.00;101326.19;5073758;28;20119;-47
2023/06/30 02:51:33;;;;;;;9.88;3.47;;;;;;;10.96;100.00;101319.19;5073813;28;20036;-49
2023/06/30 02:53:58;;;;;;;9.98;3.88;;;;;;;11.38;100.00;101397.09;5074126;28;20117;-49
2023/06/30 02:56:23;;;;;;;7.07;2.97;;;;;;;11.40;100.00;101397.03;5073787;28;20041;-48
2023/06/30 02:58:49;;;;;;;8.25;2.83;;;;;;;11.37;100.00;101390.09;5065291;28;20048;-55
2023/06/30 03:01:15;;;;;;;6.30;3.00;;;;;;;11.40;100.00;101405.81;5019009;28;20072;-54
2023/06/30 03:03:42;;;;;;;8.15;3.00;;;;;;;11.25;100.00;101369.31;5053640;28;20404;-50
2023/06/30 03:06:07;;;;;;;6.22;3.15;;;;;;;11.33;100.00;101385.78;5035705;28;20068;-50
2023/06/30 03:08:32;;;;;;;7.85;2.80;;;;;;;10.85;100.00;101302.78;5053658;28;20195;-48
2023/06/30 03:10:58;;;;;;;5.53;2.97;;;;;;;11.31;100.00;101377.06;5052008;28;20563;-50
2023/06/30 03:13:23;;;;;;;8.20;2.95;;;;;;;11.34;100.00;101374.34;5053594;28;20033;-49
2023/06/30 03:15:48;;;;;;;11.77;4.15;;;;;;;11.27;100.00;101373.66;5052733;28;20041;-51
2023/06/30 03:18:13;;;;;;;4.28;2.42;;;;;;;11.35;100.00;101396.31;5052855;28;20123;-48
2023/06/30 03:20:39;;;;;;;6.65;3.00;;;;;;;11.34;100.00;101389.31;5035446;28;20036;-49
2023/06/30 03:23:04;;;;;;;5.78;2.75;;;;;;;10.93;100.00;101322.75;5053046;28;20381;-48
2023/06/30 03:25:29;;;;;;;8.52;3.15;;;;;;;11.09;100.00;101349.56;5052133;28;20060;-51
2023/06/30 03:27:55;;;;;;;8.95;3.20;;;;;;;11.20;100.00;101382.63;5053060;28;20053;-48
2023/06/30 03:30:20;;;;;;;5.75;3.03;;;;;;;11.30;100.00;101392.03;5052981;28;20480;-52
2023/06/30 03:32:45;;;;;;;7.57;2.95;;;;;;;11.30;100.00;101393.78;5053031;28;20036;-49
2023/06/30 03:35:11;;;;;;;5.82;3.03;;;;;;;11.07;100.00;101354.88;5052570;28;20304;-48
2023/06/30 03:37:36;;;;;;;12.32;3.65;;;;;;;11.30;100.00;101409.59;5052851;28;20124;-48
2023/06/30 03:40:05;;;;;;;5.18;2.92;;;;;;;11.28;100.00;101390.34;5035469;28;20037;-47
2023/06/30 03:42:30;;;;;;;4.05;3.28;;;;;;;11.28;100.00;101393.84;5052931;28;20075;-47
2023/06/30 03:44:55;;;;;;;9.07;2.90;;;;;;;10.81;100.00;101320.44;5053050;28;20060;-49
2023/06/30 03:47:21;;;;;;;6.18;2.78;;;;;;;11.28;100.00;101391.19;5052730;28;20029;-52
2023/06/30 03:49:46;;;;;;;7.03;3.00;;;;;;;10.83;100.00;101310.72;5052743;28;20040;-52
2023/06/30 03:52:11;;;;;;;8.02;3.83;;;;;;;10.89;100.00;101321.09;5052157;28;20033;-48
2023/06/30 03:54:37;;;;;;;9.43;3.55;;;;;;;10.89;100.00;101323.72;5051710;28;20040;-50
2023/06/30 03:57:02;;;;;;;8.10;2.92;;;;;;;11.27;100.00;101383.31;5035325;28;20040;-50
2023/06/30 03:59:27;;;;;;;4.40;3.13;;;;;;;10.89;100.00;101313.19;5052299;28;20438;-49
2023/06/30 04:01:53;;;;;;;6.20;3.00;;;;;;;10.99;100.00;101334.91;5052478;28;20037;-50
2023/06/30 04:04:19;;;;;;;5.03;3.42;;;;;;;11.08;100.00;101339.94;5053251;28;20095;-49
2023/06/30 04:06:44;;;;;;;5.03;3.63;;;;;;;11.02;100.00;101330.44;5052728;28;20037;-49
2023/06/30 04:09:10;;;;;;;4.38;3.05;;;;;;;11.05;100.00;101325.06;5052626;28;20041;-47
2023/06/30 04:11:35;;;;;;;5.32;3.08;;;;;;;11.45;100.00;101371.41;5052607;28;20102;-46
2023/06/30 04:14:00;;;;;;;6.70;3.35;;;;;;;11.42;100.00;101366.22;5052449;28;20036;-48
2023/06/30 04:16:26;;;;;;;4.47;3.00;;;;;;;11.55;100.00;101379.06;5052406;28;20040;-51
2023/06/30 04:18:53;;;;;;;9.45;3.58;;;;;;;11.50;100.00;101353.72;5052729;28;20033;-46
2023/06/30 04:21:18;;;;;;;5.93;3.38;;;;;;;11.67;100.00;101378.72;5052141;28;20116;-46
2023/06/30 04:23:44;;;;;;;6.30;3.28;;;;;;;11.74;100.00;101377.66;5052366;28;20132;-49
2023/06/30 04:26:09;;;;;;;8.43;3.72;;;;;;;11.34;100.00;101297.06;5033509;28;20064;-48
2023/06/30 04:28:34;;;;;;;5.20;3.58;;;;;;;11.47;100.00;101309.00;5051858;28;20158;-52
2023/06/30 04:31:00;;;;;;;4.95;3.08;;;;;;;11.72;100.00;101339.91;5051968;28;20438;-48
2023/06/30 04:33:25;;;;;;;9.02;3.38;;;;;;;11.86;100.00;101357.97;5052122;28;20028;-49
2023/06/30 04:35:51;;;;;;;6.97;3.67;;;;;;;12.04;100.00;101381.16;5052180;28;20060;-47
2023/06/30 04:38:19;;;;;;;6.60;3.05;;;;;;;12.11;100.00;101380.06;5052241;28;20085;-53
2023/06/30 04:40:45;;;;;;;7.50;3.83;;;;;;;11.77;100.00;101306.34;5052297;28;20086;-48
2023/06/30 04:43:12;;;;;;;6.18;4.15;;;;;;;12.26;100.00;101370.81;5051646;28;20036;-50
2023/06/30 04:45:39;;;;;;;10.30;3.80;;;;;;;12.34;100.00;101382.03;5051825;28;20033;-47
2023/06/30 04:48:05;;;;;;;6.40;3.25;;;;;;;12.28;100.00;101356.69;5051982;28;20316;-48
2023/06/30 04:50:30;;;;;;;10.32;3.53;;;;;;;12.51;100.00;101379.72;5051800;28;20090;-53
2023/06/30 04:52:55;;;;;;;10.15;3.78;;;;;;;12.22;100.00;101324.31;5034186;28;20459;-47
2023/06/30 04:55:20;;;;;;;12.10;4.45;;;;;;;12.69;100.00;101373.84;5051919;28;20037;-53
2023/06/30 04:57:46;;;;;;;8.07;3.88;;;;;;;12.80;100.00;101392.84;5051848;28;20029;-49
2023/06/30 05:00:12;;;;;;;9.23;4.07;;;;;;;12.92;100.00;101381.00;5051134;28;20052;-50
2023/06/30 05:02:37;;;;;;;8.75;4.10;;;;;;;12.72;100.00;101330.63;5038482;28;20065;-49
2023/06/30 05:05:02;;;;;;;8.23;3.70;;;;;;;13.16;100.00;101388.16;5051871;28;20029;-51
2023/06/30 05:07:28;;;;;;;8.05;3.60;;;;;;;13.30;100.00;101377.97;5051821;28;20029;-51
2023/06/30 05:09:53;;;;;;;12.25;3.80;;;;;;;13.11;100.00;101316.06;5051726;28;20094;-49
2023/06/30 05:12:18;;;;;;;6.65;3.17;;;;;;;13.53;100.00;101378.00;5051788;28;20033;-48
2023/06/30 05:14:44;;;;;;;7.40;3.40;;;;;;;13.40;100.00;101329.09;5051744;28;20074;-48
2023/06/30 05:17:09;;;;;;;7.95;3.65;;;;;;;13.68;100.00;101359.84;5050463;28;20178;-47
2023/06/30 05:19:34;;;;;;;9.40;4.00;;;;;;;13.68;100.00;101347.47;5061081;28;20063;-51
2023/06/30 05:22:00;;;;;;;7.22;3.13;;;;;;;14.01;100.00;101375.31;5071745;28;20037;-49
2023/06/30 05:24:25;;;;;;;7.88;3.72;;;;;;;14.10;100.00;101361.72;5071587;28;20032;-51
2023/06/30 05:26:50;;;;;;;6.35;2.97;;;;;;;14.22;100.00;101355.09;5053794;28;20043;-49
2023/06/30 05:29:16;;;;;;;6.28;3.10;;;;;;;13.99;100.00;101305.69;5071478;28;20495;-47
2023/06/30 05:31:41;;;;;;;6.18;3.20;;;;;;;14.46;100.00;101370.06;5053630;28;20032;-48
2023/06/30 05:34:07;;;;;;;8.10;3.03;;;;;;;14.63;100.00;101370.22;5071527;28;20032;-50
2023/06/30 05:36:32;;;;;;;13.82;3.60;;;;;;;14.79;100.00;101367.81;5068116;28;20170;-49
2023/06/30 05:38:57;;;;;;;7.72;2.58;;;;;;;14.68;100.00;101324.16;5051699;28;20033;-53
2023/06/30 05:41:23;;;;;;;7.97;3.17;;;;;;;14.79;100.00;101319.25;5053839;28;20044;-50
2023/06/30 05:43:48;;;;;;;3.67;3.10;;;;;;;15.23;100.00;101384.53;5053804;28;20033;-51
2023/06/30 05:46:13;;;;;;;6.45;3.00;;;;;;;14.98;100.00;101315.75;5055031;28;20087;-50
2023/06/30 05:48:39;;;;;;;5.55;2.42;;;;;;;15.52;100.00;101370.88;5054800;28;20400;-47
2023/06/30 05:51:04;;;;;;;6.82;2.40;;;;;;;15.64;100.00;101362.34;5055053;28;20400;-51
2023/06/30 05:53:29;;;;;;;7.47;2.72;;;;;;;15.75;100.00;101364.53;5054519;28;20041;-50
2023/06/30 05:55:55;;;;;;;9.68;2.92;;;;;;;15.54;100.00;101315.94;5053704;28;20442;-47
2023/06/30 05:58:21;;;;;;;7.80;2.78;;;;;;;15.87;100.00;101358.69;5054943;28;20029;-51
2023/06/30 06:00:47;;;;;;;8.98;2.70;;;;;;;16.11;100.00;101378.75;5053339;28;20064;-55
2023/06/30 06:03:12;;;;;;;7.85;2.63;;;;;;;16.20;100.00;101373.03;5060546;28;20041;-49
2023/06/30 06:05:37;;;;;;;9.63;3.00;;;;;;;16.31;100.00;101389.31;5052455;28;20033;-48
2023/06/30 06:08:03;;;;;;;7.18;2.28;;;;;;;16.45;100.00;101387.81;5072499;28;20040;-51
2023/06/30 06:10:28;;;;;;;7.22;2.70;;;;;;;16.50;100.00;101380.47;5065642;28;20472;-47
2023/06/30 06:12:54;;;;;;;6.22;2.53;;;;;;;16.32;100.00;101327.28;5048089;28;20128;-48
2023/06/30 06:15:19;;;;;;;4.28;2.28;;;;;;;16.50;100.00;101327.31;5054199;28;20109;-47
2023/06/30 06:17:44;;;;;;;7.18;2.33;;;;;;;16.69;100.00;101352.09;5054348;28;20037;-50
2023/06/30 06:20:10;;;;;;;4.72;2.17;;;;;;;16.63;100.00;101325.81;5041643;28;20108;-49
2023/06/30 06:22:35;;;;;;;6.65;2.50;;;;;;;17.04;100.00;101388.44;5073628;28;20056;-47
2023/06/30 06:25:01;;;;;;;6.95;2.40;;;;;;;17.16;100.00;101378.97;5059493;28;20484;-47
2023/06/30 06:27:28;;;;;;;4.38;2.00;;;;;;;17.20;100.00;101364.56;5052845;28;20037;-47
2023/06/30 06:29:54;;;;;;;6.57;2.10;;;;;;;17.43;100.00;101405.00;5053125;28;20051;-50
2023/06/30 06:32:19;;;;;;;3.88;1.88;;;;;;;17.47;100.00;101402.19;5052963;28;20108;-48
2023/06/30 06:34:45;;;;;;;6.03;1.98;;;;;;;17.53;100.00;101413.38;5053616;28;20087;-47
2023/06/30 06:37:11;;;;;;;5.65;2.15;;;;;;;17.57;100.00;101408.81;5036266;28;20040;-50
2023/06/30 06:39:36;;;;;;;5.20;2.00;;;;;;;17.64;100.00;101415.50;5053117;28;20025;-46
2023/06/30 06:42:01;;;;;;;3.45;1.52;;;;;;;17.40;100.00;101362.59;5054375;28;20385;-46
2023/06/30 06:44:27;;;;;;;6.10;2.00;;;;;;;17.79;100.00;101394.28;5053962;28;20033;-51
2023/06/30 06:47:30;;;;;;;7.72;2.05;;;;;;;18.04;100.00;101414.25;5045686;28;20534;-48
2023/06/30 06:49:56;;;;;;;10.05;2.90;;;;;;;18.12;100.00;101410.25;5054154;28;20041;-49
2023/06/30 06:52:21;;;;;;;6.28;1.80;;;;;;;18.23;100.00;101407.84;5072835;28;20032;-48
2023/06/30 06:54:46;;;;;;;6.32;1.90;;;;;;;18.34;100.00;101409.91;5055571;28;20033;-49
2023/06/30 06:57:12;;;;;;;4.97;2.03;;;;;;;18.54;100.00;101415.88;5072346;28;20334;-49
2023/06/30 06:59:37;;;;;;;7.85;2.08;;;;;;;18.64;100.00;101424.22;5044911;28;20033;-52
2023/06/30 07:02:02;;;;;;;4.05;1.75;;;;;;;18.71;100.00;101427.41;5059208;28;20074;-48
2023/06/30 07:04:28;;;;;;;5.95;1.83;;;;;;;18.75;100.00;101416.47;5054176;28;20041;-48
2023/06/30 07:06:53;;;;;;;5.57;1.73;;;;;;;18.56;100.00;101364.28;5053894;28;20156;-49
2023/06/30 07:09:18;;;;;;;6.28;2.08;;;;;;;18.95;100.00;101420.66;5053085;28;20059;-49
2023/06/30 07:11:44;;;;;;;3.55;1.52;;;;;;;19.14;100.00;101426.66;5053382;28;20126;-50
2023/06/30 07:14:09;;;;;;;3.88;1.60;;;;;;;18.76;100.00;101332.84;5070496;28;20129;-47
2023/06/30 07:16:34;;;;;;;4.60;1.40;;;;;;;18.95;100.00;101364.63;5051212;28;20460;-55
2023/06/30 07:19:00;;;;;;;4.15;1.60;;;;;;;19.04;100.00;101356.09;5053211;28;20036;-50
2023/06/30 07:21:26;;;;;;;4.57;1.67;;;;;;;19.47;100.00;101419.34;5053570;28;20450;-48
2023/06/30 07:23:52;;;;;;;3.38;1.15;;;;;;;19.33;100.00;101370.34;5062500;28;20039;-50
2023/06/30 07:26:17;;;;;;;4.20;1.70;;;;;;;19.66;100.00;101424.44;5053709;28;20296;-50
2023/06/30 07:28:42;;;;;;;4.47;1.52;;;;;;;19.67;100.00;101435.97;5051693;28;20083;-50
2023/06/30 07:31:08;;;;;;;1.90;1.23;;;;;;;19.52;100.00;101377.22;5053248;28;20103;-48
2023/06/30 07:33:33;;;;;;;5.65;1.50;;;;;;;19.96;100.00;101424.38;5053095;28;20083;-49
2023/06/30 07:35:58;;;;;;;4.03;2.20;;;;;;;20.12;100.00;101417.09;5034529;28;20301;-50
2023/06/30 07:38:24;;;;;;;6.60;2.08;;;;;;;19.86;100.00;101356.41;5053149;28;20044;-48
2023/06/30 07:40:49;;;;;;;3.78;2.05;;;;;;;20.42;100.00;101420.53;5060919;28;20041;-46
2023/06/30 07:43:14;;;;;;;2.90;1.70;;;;;;;20.32;100.00;101357.03;5072726;28;20445;-50
2023/06/30 07:45:40;;;;;;;6.57;2.08;;;;;;;21.08;100.00;101409.06;5069967;28;20043;-50
2023/06/30 07:48:05;;;;;;;7.65;2.17;;;;;;;21.09;100.00;101354.59;5072943;28;20044;-52
2023/06/30 07:50:30;;;;;;;2.33;1.20;;;;;;;21.62;100.00;101369.66;5071205;28;20040;-51
2023/06/30 07:52:56;;;;;;;6.93;2.38;;;;;;;22.32;100.00;101422.69;5073189;28;20042;-49
2023/06/30 07:55:22;;;;;;;2.97;1.60;;;;;;;22.29;100.00;101355.84;5071668;28;20041;-50
2023/06/30 07:57:48;;;;;;;3.17;1.85;;;;;;;22.78;100.00;101419.34;5055220;28;20118;-53
2023/06/30 08:00:21;;;;;;;4.25;1.60;;;;;;;23.04;100.00;101423.63;5072625;28;20437;-49
2023/06/30 08:02:46;;;;;;;4.60;1.70;;;;;;;23.37;100.00;101422.91;5072704;28;20039;-49
2023/06/30 08:05:12;;;;;;;4.80;1.55;;;;;;;23.16;100.00;101421.84;5067353;28;20032;-51
2023/06/30 08:07:37;;;;;;;3.92;1.80;;;;;;;23.04;100.00;101428.13;5052055;28;20041;-51
2023/06/30 08:10:03;;;;;;;4.40;1.85;;;;;;;22.56;100.00;101409.31;5052178;28;20033;-49
2023/06/30 08:12:28;;;;;;;3.35;1.98;;;;;;;22.18;100.00;101414.75;5052328;28;20033;-49
2023/06/30 08:14:54;;;;;;;5.57;1.60;;;;;;;21.77;100.00;101345.28;5052402;28;20460;-50
2023/06/30 08:17:19;;;;;;;3.13;2.03;;;;;;;22.26;100.00;101398.13;5052323;28;20045;-52
2023/06/30 08:19:44;;;;;;;3.33;1.25;;;;;;;22.70;100.00;101402.97;5052273;28;20033;-48
2023/06/30 08:22:13;;;;;;;4.00;1.95;;;;;;;22.66;100.00;101363.88;5052032;28;20069;-49
2023/06/30 08:24:40;;;;;;;5.07;1.90;;;;;;;23.06;100.00;101418.97;5052278;28;20041;-49
2023/06/30 08:27:06;;;;;;;3.78;1.60;;;;;;;22.43;100.00;101288.63;5050429;28;20451;-47
2023/06/30 08:29:31;;;;;;;6.05;1.90;;;;;;;22.66;100.00;101343.28;5069402;28;20040;-50
2023/06/30 08:31:56;;;;;;;5.60;2.08;;;;;;;22.92;100.00;101411.97;5069337;28;20047;-52
2023/06/30 08:34:25;;;;;;;2.92;1.42;;;;;;;22.95;100.00;101416.25;5069816;28;20040;-48
2023/06/30 08:36:54;;;;;;;5.85;1.95;;;;;;;22.75;100.00;101388.22;5068199;28;20144;-49
2023/06/30 08:39:19;;;;;;;4.05;1.75;;;;;;;22.17;100.00;101355.88;5049771;28;20029;-52
2023/06/30 08:41:45;;;;;;;2.67;1.70;;;;;;;22.30;100.00;101354.88;5050082;28;20033;-53
2023/06/30 08:44:10;;;;;;;3.65;1.42;;;;;;;23.23;100.00;101407.00;5032470;28;20041;-48
2023/06/30 08:46:36;;;;;;;3.20;1.63;;;;;;;23.78;100.00;101401.78;5045948;28;20051;-51
2023/06/30 08:49:01;;;;;;;3.55;1.38;;;;;;;24.19;100.00;101386.91;5068707;28;20052;-51
2023/06/30 08:51:27;;;;;;;4.90;1.80;;;;;;;24.16;100.00;101338.72;5070016;28;20068;-52
2023/06/30 08:53:53;;;;;;;4.85;1.52;;;;;;;24.32;100.00;101401.91;5052419;28;20103;-53
2023/06/30 08:56:19;;;;;;;4.43;1.80;;;;;;;23.50;100.00;101345.78;5046151;28;20045;-51
2023/06/30 08:58:45;;;;;;;3.80;1.38;;;;;;;23.28;100.00;101365.38;5049432;28;20036;-47
2023/06/30 09:01:12;;;;;;;4.05;1.50;;;;;;;23.38;100.00;101382.50;5050694;28;20056;-50
2023/06/30 09:03:38;;;;;;;5.38;1.65;;;;;;;23.20;100.00;101348.13;5052022;28;20033;-46
2023/06/30 09:06:03;;;;;;;7.57;1.52;;;;;;;23.79;100.00;101389.19;5052175;28;20047;-48
2023/06/30 09:08:37;;;;;;;2.88;1.48;;;;;;;24.02;100.00;101388.22;5064394;28;20054;-50
2023/06/30 09:11:04;;;;;;;3.70;1.60;;;;;;;23.75;100.00;101339.34;5064207;28;20056;-47
2023/06/30 09:13:30;;;;;;;4.25;1.80;;;;;;;23.92;100.00;101380.03;5049405;28;20043;-51
2023/06/30 09:15:58;;;;;;;4.88;1.67;;;;;;;24.06;100.00;101389.69;5051114;28;20044;-49
2023/06/30 09:18:23;;;;;;;2.58;1.35;;;;;;;23.71;100.00;101324.41;5053132;28;20472;-47
2023/06/30 09:20:49;;;;;;;4.93;1.67;;;;;;;24.03;100.00;101366.56;5051742;28;20043;-54
2023/06/30 09:23:15;;;;;;;2.15;1.45;;;;;;;23.85;100.00;101372.56;5055246;28;20060;-51
2023/06/30 09:25:41;;;;;;;2.40;1.20;;;;;;;23.16;100.00;101309.91;5073267;28;20119;-48
2023/06/30 09:28:12;;;;;;;2.30;1.65;;;;;;;23.02;100.00;101382.63;5071193;28;20035;-46
2023/06/30 09:30:38;;;;;;;;;;;;;;;23.01;100.00;101371.97;5053727;28;20099;-51
2023/06/30 09:33:05;;;;;;;2.92;1.35;;;;;;;23.17;100.00;101311.63;5052662;28;20020;-50
2023/06/30 09:35:41;;;;;;;4.88;1.15;;;;;;;23.71;100.00;101327.09;5053150;28;20039;-49
2023/06/30 09:38:14;;;;;;;3.50;1.50;;;;;;;23.85;100.00;101377.94;5062778;28;20028;-51
2023/06/30 09:40:47;;;;;;;2.13;1.25;;;;;;;23.06;100.00;101316.94;5059485;28;20040;-51
2023/06/30 09:43:23;;;;;;;4.15;1.88;;;;;;;23.52;100.00;101370.72;5055490;28;20037;-48
2023/06/30 09:45:57;;;;;;;3.58;1.75;;;;;;;23.04;100.00;101307.31;5034398;28;20036;-49
2023/06/30 09:48:29;;;;;;;2.63;1.15;;;;;;;23.42;100.00;101306.09;5052821;28;20118;-48
2023/06/30 09:50:55;;;;;;;3.60;1.10;;;;;;;24.04;100.00;101359.38;5059936;28;20028;-50
2023/06/30 09:53:20;;;;;;;6.07;1.67;;;;;;;23.83;100.00;101328.81;5053647;28;20047;-50
2023/06/30 09:55:50;;;;;;;1.92;1.17;;;;;;;23.86;100.00;101301.69;5035020;28;20044;-50
2023/06/30 09:58:17;;;;;;;4.75;1.33;;;;;;;23.98;100.00;101338.34;5051974;28;20044;-51
2023/06/30 10:00:43;;;;;;;3.30;1.58;;;;;;;23.66;100.00;101300.59;5071598;28;20056;-50
2023/06/30 10:03:08;;;;;;;2.65;1.40;;;;;;;23.70;100.00;101341.53;5070094;28;20040;-54
2023/06/30 10:05:34;;;;;;;5.38;1.70;;;;;;;23.15;100.00;101304.66;5073371;28;20032;-49
2023/06/30 10:08:01;;;;;;;4.43;1.70;;;;;;;23.59;100.00;101338.81;5071776;28;20398;-50
2023/06/30 10:10:26;;;;;;;3.83;1.58;;;;;;;24.11;100.00;101351.72;5054443;28;20032;-50
2023/06/30 10:12:52;;;;;;;4.13;1.50;;;;;;;24.50;100.00;101352.00;5072459;28;20044;-52
2023/06/30 10:15:18;;;;;;;3.33;1.45;;;;;;;24.44;100.00;101287.03;5070830;28;20143;-58
2023/06/30 10:17:44;;;;;;;1.75;1.40;;;;;;;24.61;100.00;101338.50;5058026;28;20040;-54
2023/06/30 10:20:10;;;;;;;2.03;1.58;;;;;;;24.32;100.00;101341.88;5053305;28;20079;-55
2023/06/30 10:22:37;;;;;;;2.70;1.67;;;;;;;23.81;100.00;101342.41;5051785;28;20068;-58
2023/06/30 10:25:02;;;;;;;4.18;1.40;;;;;;;23.31;100.00;101335.59;5052198;28;20142;-56
2023/06/30 10:27:28;;;;;;;2.75;1.40;;;;;;;22.94;100.00;101332.16;5052254;28;20501;-51
2023/06/30 10:29:54;;;;;;;4.00;1.80;;;;;;;22.65;100.00;101341.56;5053432;28;20048;-55
2023/06/30 10:32:20;;;;;;;4.60;2.00;;;;;;;23.45;100.00;101316.59;5051224;28;20135;-56
2023/06/30 10:34:47;;;;;;;3.28;1.75;;;;;;;24.09;100.00;101322.19;5037835;28;20403;-52
2023/06/30 10:37:13;;;;;;;5.35;1.80;;;;;;;23.93;100.00;101274.16;5050121;28;20371;-59
2023/06/30 10:39:39;;;;;;;3.90;1.80;;;;;;;24.03;100.00;101322.69;5049858;28;20036;-55
2023/06/30 10:42:04;;;;;;;3.28;1.73;;;;;;;24.31;100.00;101321.34;5036614;28;20033;-53
2023/06/30 10:44:37;;;;;;;2.40;1.55;;;;;;;25.35;100.00;101325.06;5071756;28;20040;-51
2023/06/30 10:47:03;;;;;;;2.92;1.60;;;;;;;25.90;100.00;101327.34;5053926;28;20036;-53
2023/06/30 10:49:29;;;;;;;4.13;1.92;;;;;;;26.61;100.00;101352.44;5054032;28;20176;-55
2023/06/30 10:52:01;;;;;;;3.80;1.63;;;;;;;26.88;100.00;101355.34;5040774;28;20040;-53
2023/06/30 10:54:37;;;;;;;3.05;1.50;;;;;;;27.27;100.00;101311.06;5065861;28;20043;-55
2023/06/30 10:57:09;;;;;;;4.10;2.03;;;;;;;27.15;100.00;101336.53;5053466;28;20036;-56
2023/06/30 10:59:45;;;;;;;2.83;1.40;;;;;;;26.88;100.00;101254.53;5053310;28;20028;-57
2023/06/30 11:02:16;;;;;;;3.47;1.65;;;;;;;27.85;100.00;101340.63;5071822;28;20383;-54
2023/06/30 11:04:42;;;;;;;2.70;1.60;;;;;;;28.25;99.86;101310.56;5053289;28;20040;-53
2023/06/30 11:07:10;;;;;;;3.72;1.55;;;;;;;27.53;97.73;101275.28;5053770;28;20089;-55
2023/06/30 11:09:47;;;;;;;3.13;1.63;;;;;;;27.25;100.00;101337.38;5060409;28;20445;-57
2023/06/30 11:12:55;;;;;;;2.17;1.15;;;;;;;27.38;100.00;101323.53;5033695;28;20048;-57